createdAt,value
2023-07-20T00:00:28.334Z,4.10
2023-07-20T00:03:19.859Z,6.90
2023-07-20T00:06:08.412Z,5.10
2023-07-20T00:08:57.101Z,5.20
2023-07-20T00:11:51.756Z,4.10
2023-07-20T00:14:39.605Z,4.50
2023-07-20T00:17:27.620Z,3.40
2023-07-20T00:20:16.551Z,6.00
2023-07-20T00:23:05.120Z,6.40
2023-07-20T00:25:53.709Z,6.50
2023-07-20T00:28:41.868Z,5.00
2023-07-20T00:31:30.367Z,4.50
2023-07-20T00:34:18.359Z,4.20
2023-07-20T00:37:07.235Z,5.30
2023-07-20T00:39:55.519Z,7.10
2023-07-20T00:42:45.843Z,2.50
2023-07-20T00:45:34.593Z,3.40
2023-07-20T00:48:24.490Z,4.60
2023-07-20T00:51:13.179Z,6.00
2023-07-20T00:54:01.327Z,3.00
2023-07-20T00:56:50.027Z,5.40
2023-07-20T00:59:38.438Z,4.20
2023-07-20T01:02:26.542Z,5.40
2023-07-20T01:05:17.202Z,3.40
2023-07-20T01:08:14.186Z,5.30
2023-07-20T01:11:13.744Z,6.50
2023-07-20T01:14:02.402Z,6.90
2023-07-20T01:16:52.934Z,4.00
2023-07-20T01:19:41.623Z,6.00
2023-07-20T01:22:59.227Z,8.00
2023-07-20T01:26:10.632Z,6.80
2023-07-20T01:29:24.288Z,6.10
2023-07-20T01:32:13.077Z,4.00
2023-07-20T01:35:01.069Z,6.00
2023-07-20T01:37:49.354Z,4.40
2023-07-20T01:40:37.338Z,5.00
2023-07-20T01:43:27.014Z,4.20
2023-07-20T01:46:15.343Z,7.50
2023-07-20T01:49:04.442Z,4.30
2023-07-20T01:51:53.544Z,2.90
2023-07-20T01:54:42.301Z,7.70
2023-07-20T01:57:31.159Z,5.20
2023-07-20T02:00:21.951Z,3.90
2023-07-20T02:03:12.605Z,4.50
2023-07-20T02:06:01.260Z,4.80
2023-07-20T02:08:50.622Z,4.70
2023-07-20T02:11:40.197Z,4.10
2023-07-20T02:14:29.131Z,4.80
2023-07-20T02:17:18.330Z,3.00
2023-07-20T02:20:09.407Z,3.70
2023-07-20T02:22:58.247Z,3.90
2023-07-20T02:25:46.628Z,3.40
2023-07-20T02:28:34.867Z,4.10
2023-07-20T02:31:23.415Z,3.40
2023-07-20T02:34:11.938Z,5.30
2023-07-20T02:37:01.577Z,4.50
2023-07-20T02:39:49.608Z,4.10
2023-07-20T02:42:38.711Z,4.00
2023-07-20T02:45:26.565Z,6.70
2023-07-20T02:48:15.109Z,5.30
2023-07-20T02:51:03.516Z,4.00
2023-07-20T02:53:51.558Z,4.80
2023-07-20T02:56:40.130Z,5.10
2023-07-20T02:59:29.946Z,4.90
2023-07-20T03:02:18.429Z,5.10
2023-07-20T03:05:07.953Z,4.30
2023-07-20T03:07:56.670Z,7.10
2023-07-20T03:10:45.111Z,5.50
2023-07-20T03:13:33.951Z,4.70
2023-07-20T03:16:24.496Z,4.30
2023-07-20T03:19:13.977Z,3.20
2023-07-20T03:22:03.532Z,5.60
2023-07-20T03:24:52.989Z,5.40
2023-07-20T03:27:42.514Z,4.20
2023-07-20T03:30:31.344Z,3.00
2023-07-20T03:33:19.912Z,5.10
2023-07-20T03:36:10.758Z,8.20
2023-07-20T03:38:58.734Z,4.40
2023-07-20T03:41:46.737Z,2.80
2023-07-20T03:44:35.261Z,4.90
2023-07-20T03:47:24.960Z,5.70
2023-07-20T03:50:14.469Z,3.60
2023-07-20T03:53:02.663Z,5.80
2023-07-20T03:55:51.813Z,5.50
2023-07-20T03:58:41.765Z,3.50
2023-07-20T04:01:30.268Z,4.60
2023-07-20T04:04:18.338Z,8.70
2023-07-20T04:07:07.052Z,5.90
2023-07-20T04:09:55.560Z,6.50
2023-07-20T04:12:45.493Z,7.50
2023-07-20T04:15:35.226Z,5.20
2023-07-20T04:18:24.275Z,8.30
2023-07-20T04:21:12.764Z,6.40
2023-07-20T04:24:01.300Z,6.80
2023-07-20T04:26:49.915Z,3.70
2023-07-20T04:29:38.741Z,5.20
2023-07-20T04:32:27.581Z,5.30
2023-07-20T04:35:46.618Z,9.10
2023-07-20T04:38:37.293Z,9.80
2023-07-20T04:41:34.627Z,10.80
2023-07-20T04:44:23.570Z,7.40
2023-07-20T04:47:11.612Z,9.10
2023-07-20T04:50:00.786Z,5.40
2023-07-20T04:52:48.931Z,7.10
2023-07-20T04:55:40.603Z,7.20
2023-07-20T04:58:29.738Z,6.30
2023-07-20T05:01:18.128Z,5.40
2023-07-20T05:04:08.956Z,11.40
2023-07-20T05:06:57.633Z,3.50
2023-07-20T05:09:46.853Z,4.70
2023-07-20T05:12:35.357Z,4.90
2023-07-20T05:15:23.450Z,6.40
2023-07-20T05:18:12.984Z,9.40
2023-07-20T05:21:02.718Z,3.10
2023-07-20T05:23:53.099Z,3.60
2023-07-20T05:26:44.256Z,6.90
2023-07-20T05:29:33.592Z,6.60
2023-07-20T05:32:22.526Z,5.10
2023-07-20T05:35:12.505Z,2.80
2023-07-20T05:38:00.836Z,6.20
2023-07-20T05:40:49.330Z,2.30
2023-07-20T05:43:37.457Z,4.30
2023-07-20T05:46:42.351Z,3.20
2023-07-20T05:49:41.296Z,7.10
2023-07-20T05:52:30.421Z,3.20
2023-07-20T05:55:18.828Z,2.70
2023-07-20T05:58:09.189Z,4.70
2023-07-20T06:01:00.955Z,6.60
2023-07-20T06:03:49.748Z,3.60
2023-07-20T06:06:41.253Z,5.90
2023-07-20T06:10:00.227Z,4.40
2023-07-20T06:12:59.436Z,2.90
2023-07-20T06:16:03.101Z,2.40
2023-07-20T06:19:04.144Z,3.00
2023-07-20T06:22:03.154Z,5.10
2023-07-20T06:24:57.480Z,2.70
2023-07-20T06:27:49.922Z,3.70
2023-07-20T06:31:09.363Z,4.10
2023-07-20T06:33:57.809Z,3.30
2023-07-20T06:36:48.705Z,4.70
2023-07-20T06:43:48.682Z,2.70
2023-07-20T06:45:37.317Z,3.90
2023-07-20T06:48:28.959Z,2.80
2023-07-20T06:51:18.419Z,2.90
2023-07-20T13:01:05.690Z,10.00
2023-07-20T13:56:20.567Z,5.20
2023-07-20T14:24:59.278Z,8.70
2023-07-20T14:29:51.038Z,6.80
2023-07-20T14:37:17.602Z,8.10
2023-07-20T14:41:30.681Z,6.80
2023-07-20T14:45:01.167Z,6.40
2023-07-20T15:06:27.272Z,7.00
2023-07-20T15:09:35.283Z,5.50
2023-07-20T15:17:39.973Z,6.20
2023-07-20T15:34:54.784Z,8.00
2023-07-20T15:37:44.714Z,6.00
2023-07-20T15:40:34.025Z,10.10
2023-07-20T15:43:22.289Z,5.50
2023-07-20T15:46:40.424Z,7.80
2023-07-20T15:49:33.342Z,8.00
2023-07-20T15:52:24.320Z,6.30
2023-07-20T15:55:13.131Z,6.10
2023-07-20T15:58:03.399Z,5.40
2023-07-20T16:00:57.577Z,5.00
2023-07-20T16:03:46.302Z,4.80
2023-07-20T16:06:36.261Z,6.60
2023-07-20T16:09:24.569Z,6.20
2023-07-20T16:12:13.389Z,9.30
2023-07-20T16:17:53.777Z,5.40
2023-07-20T16:20:42.459Z,6.30
2023-07-20T16:23:31.159Z,6.90
2023-07-20T16:26:19.646Z,1.80
2023-07-20T16:32:11.884Z,6.40
2023-07-20T16:35:11.594Z,4.70
2023-07-20T16:40:57.713Z,7.50
2023-07-20T16:49:37.318Z,10.80
2023-07-20T16:52:28.885Z,5.10
2023-07-20T16:55:19.517Z,6.20
2023-07-20T16:58:08.532Z,9.70
2023-07-20T17:01:09.372Z,6.10
2023-07-20T17:03:59.759Z,7.20
2023-07-20T17:06:49.161Z,5.70
2023-07-20T17:09:37.829Z,7.50
2023-07-20T17:12:26.709Z,6.60
2023-07-20T17:15:15.945Z,6.00
2023-07-20T17:18:04.214Z,9.00
2023-07-20T17:21:11.625Z,6.60
2023-07-20T17:24:03.819Z,8.40
2023-07-20T17:27:18.359Z,5.70
2023-07-20T17:30:07.499Z,10.40
2023-07-20T17:32:58.176Z,8.80
2023-07-20T17:38:54.117Z,7.60
2023-07-20T17:41:46.440Z,8.60
2023-07-20T17:44:41.263Z,7.90
2023-07-20T17:47:30.070Z,6.50
2023-07-20T17:50:18.688Z,14.10
2023-07-20T17:53:07.298Z,11.90
2023-07-20T17:55:55.563Z,10.70
2023-07-20T17:58:44.012Z,21.60
2023-07-20T18:01:33.004Z,6.40
2023-07-20T18:04:21.177Z,6.80
2023-07-20T18:07:09.666Z,6.60
2023-07-20T18:09:58.071Z,10.80
2023-07-20T18:12:47.293Z,7.40
2023-07-20T18:15:36.558Z,4.70
2023-07-20T18:18:24.713Z,9.50
2023-07-20T18:21:13.545Z,9.80
2023-07-20T18:24:01.939Z,3.70
2023-07-20T18:26:53.414Z,6.50
2023-07-20T18:29:41.579Z,4.90
2023-07-20T18:32:29.712Z,5.20
2023-07-20T18:35:18.034Z,6.40
2023-07-20T18:38:06.592Z,5.90
2023-07-20T18:40:57.863Z,4.60
2023-07-20T18:43:46.830Z,4.60
2023-07-20T18:46:35.613Z,4.80
2023-07-20T18:49:26.622Z,5.30
2023-07-20T18:52:14.758Z,7.40
2023-07-20T18:55:06.348Z,7.20
2023-07-20T18:57:54.761Z,5.30
2023-07-20T19:00:43.138Z,8.60
2023-07-20T19:03:32.083Z,8.30
2023-07-20T19:06:20.709Z,5.00
2023-07-20T19:09:09.134Z,9.00
2023-07-20T19:11:57.802Z,7.30
2023-07-20T19:14:48.990Z,7.80
2023-07-20T19:17:37.287Z,6.80
2023-07-20T19:20:25.561Z,11.10
2023-07-20T19:23:13.705Z,7.40
2023-07-20T19:26:10.994Z,14.00
2023-07-20T19:28:58.984Z,22.50
2023-07-20T19:31:47.630Z,19.50
2023-07-20T19:34:37.201Z,20.70
2023-07-20T19:37:25.579Z,21.10
2023-07-20T19:40:13.615Z,19.40
2023-07-20T19:43:03.637Z,25.40
2023-07-20T19:45:51.986Z,23.70
2023-07-20T19:48:40.344Z,22.10
2023-07-20T19:51:28.950Z,24.80
2023-07-20T19:57:40.022Z,22.30
2023-07-20T20:00:19.149Z,21.00
2023-07-20T20:05:59.696Z,24.30
2023-07-20T20:08:52.130Z,24.40
2023-07-20T20:11:40.166Z,26.60
2023-07-20T20:14:29.772Z,26.10
2023-07-20T20:17:21.081Z,21.30
2023-07-20T20:20:12.092Z,23.40
2023-07-20T20:23:00.059Z,24.00
2023-07-20T20:25:48.964Z,20.90
2023-07-20T20:28:37.094Z,22.70
2023-07-20T20:31:25.869Z,22.50
2023-07-20T20:34:13.982Z,24.00
2023-07-20T20:37:02.376Z,22.90
2023-07-20T20:39:51.041Z,26.70
2023-07-20T20:42:41.001Z,21.10
2023-07-20T20:45:29.637Z,21.50
2023-07-20T20:48:18.045Z,19.80
2023-07-20T20:51:06.333Z,20.90
2023-07-20T20:53:54.608Z,21.60
2023-07-20T20:56:42.861Z,20.20
2023-07-20T20:59:31.276Z,22.80
2023-07-20T21:02:19.622Z,19.20
2023-07-20T21:05:08.971Z,19.40
2023-07-20T21:07:58.983Z,18.70
2023-07-20T21:10:47.385Z,21.60
2023-07-20T21:13:35.833Z,18.70
2023-07-20T21:16:24.436Z,23.50
2023-07-20T21:19:14.826Z,21.10
2023-07-20T21:22:03.526Z,21.70
2023-07-20T21:24:52.061Z,19.90
2023-07-20T21:27:43.118Z,17.20
2023-07-20T21:30:31.534Z,18.80
2023-07-20T21:33:19.892Z,18.30
2023-07-20T21:36:08.409Z,19.40
2023-07-20T21:38:57.319Z,19.20
2023-07-20T21:41:45.274Z,20.60
2023-07-20T21:44:33.633Z,20.90
2023-07-20T21:47:21.973Z,23.50
2023-07-20T21:50:10.583Z,19.00
2023-07-20T21:53:01.814Z,23.20
2023-07-20T21:55:49.998Z,22.70
2023-07-20T21:58:38.515Z,20.60
2023-07-20T22:01:57.028Z,20.20
2023-07-20T22:04:35.439Z,19.10
2023-07-20T22:07:23.775Z,21.70
2023-07-20T22:10:11.987Z,17.10
2023-07-20T22:13:00.399Z,20.90
2023-07-20T22:15:51.124Z,19.40
2023-07-20T22:18:39.684Z,16.60
2023-07-20T22:21:28.075Z,18.80
2023-07-20T22:24:16.660Z,17.80
2023-07-20T22:27:05.149Z,17.90
2023-07-20T22:29:53.316Z,18.00
2023-07-20T22:32:43.670Z,14.20
2023-07-20T22:35:32.621Z,20.40
2023-07-20T22:38:21.242Z,17.80
2023-07-20T22:41:09.653Z,13.30
2023-07-20T22:43:57.996Z,12.50
2023-07-20T22:46:47.395Z,11.60
2023-07-20T22:49:36.045Z,14.00
2023-07-20T22:52:24.490Z,18.50
2023-07-20T22:55:12.809Z,13.30
2023-07-20T22:58:01.128Z,16.50
2023-07-20T23:00:49.073Z,12.40
2023-07-20T23:03:38.092Z,18.80
2023-07-20T23:06:26.710Z,14.60
2023-07-20T23:09:15.310Z,14.40
2023-07-20T23:12:03.750Z,14.90
2023-07-20T23:15:17.250Z,16.50
2023-07-20T23:18:32.784Z,14.50
2023-07-20T23:21:46.019Z,15.00
2023-07-20T23:24:59.812Z,15.00
2023-07-20T23:28:07.140Z,15.40
2023-07-20T23:31:21.139Z,11.00
2023-07-20T23:34:36.674Z,12.90
2023-07-20T23:37:50.426Z,12.70
2023-07-20T23:41:06.191Z,12.20
2023-07-20T23:44:20.057Z,16.40
2023-07-20T23:47:35.393Z,17.20
2023-07-20T23:50:42.422Z,15.40
2023-07-20T23:53:49.817Z,14.00
2023-07-20T23:57:03.161Z,13.70
